CANAVERAL NM East of Cape Canaveral, FL (41009)

Conditions for Saturday

Daily
Weekly
Monthly
Marine Data Graph

Marine & Boating Location Search

Enter a coastal zip code for marine weather.

General Information

Location: 28.522 North -80.188 West
Buoy Type: 3-meter discus buoy
Buoy Hull: 3D86
Payload: AMPS payload
Owned by: NDBC
Windspeed: Measured by obtained from anemometer
Sea Surface: Measured by Intake

Weather and Wave Data

Time Temp Humidity Wind Dominant Wave Wind Wave Wave Swell Pressure
  Air
(°F)
Water
(°F)
  Dir Speed
(kts)
Speed
(mph)
Period
(sec)
Height
(ft)
Range
(ft)
Period
(sec)
Height
(ft)
Range
(ft)
Period
(sec)
Height
(ft)
Range
(ft)
Atmo.
(in)
Tend.
(in)
20:20 70 71 55 South 15.6 17.9 - - - - - - 30.01 -
20:50 68 71 67 South 13.6 15.7 7 2.62 exactly 2.6 3 1.64 0.82 - 2.46 7 1.64 0.82 - 2.46 30.02 +0.06
21:20 69 71 61 South 11.7 13.4 - - - - - - 30.03 -
21:50 69 71 64 SSE 13.6 15.7 7 2.95 exactly 3.0 4 1.64 0.82 - 2.46 7 1.64 0.82 - 2.46 30.03 +0.05
22:20 69 71 62 SE 11.7 13.4 - - - - - - 30.04 -
22:50 69 71 61 SE 11.7 13.4 7 2.62 exactly 2.6 6 1.64 0.82 - 2.46 7 1.64 0.82 - 2.46 30.03 +0.03
23:20 69 71 62 SE 11.7 13.4 - - - - - - 30.03 -
23:50 69 71 66 SE 11.7 13.4 6 2.62 exactly 2.6 3 1.64 0.82 - 2.46 6 1.64 0.82 - 2.46 30.03 +0.01
00:20 69 71 67 SE 11.7 13.4 - - - - - - 30.02 -
00:50 69 71 67 SE 13.6 15.7 7 2.62 exactly 2.6 4 1.64 0.82 - 2.46 7 1.64 0.82 - 2.46 30.01 -0.02
01:20 70 71 65 SE 11.7 13.4 - - - - - - 30.01 -
01:50 70 71 66 SE 13.6 15.7 3 2.62 exactly 2.6 3 1.64 0.82 - 2.46 7 1.64 0.82 - 2.46 30.00 -0.03
02:20 71 71 67 SE 15.6 17.9 - - - - - - 29.99 -
02:50 70 71 73 SE 13.6 15.7 4 2.95 exactly 3.0 4 3.28 2.46 - 4.10 7 1.64 0.82 - 2.46 29.98 -0.05
03:20 71 71 71 SE 15.6 17.9 - - - - - - 29.96 -
03:50 71 71 73 SE 13.6 15.7 4 2.95 exactly 3.0 4 3.28 2.46 - 4.10 7 1.64 0.82 - 2.46 29.96 -0.05
04:20 71 71 71 SSE 13.6 15.7 - - - - - - 29.95 -
04:50 72 71 69 SSE 13.6 15.7 4 2.95 exactly 3.0 4 3.28 2.46 - 4.10 10 1.64 0.82 - 2.46 29.94 -0.06
05:20 72 71 74 South 13.6 15.7 - - - - - - 29.94 -
05:50 71 71 82 SSE 13.6 15.7 4 2.95 exactly 3.0 4 3.28 2.46 - 4.10 7 1.64 0.82 - 2.46 29.93 -0.05
06:20 71 71 84 South 11.7 13.4 - - - - - - 29.94 -
06:50 71 71 85 South 11.7 13.4 4 2.95 exactly 3.0 4 3.28 2.46 - 4.10 7 1.64 0.82 - 2.46 29.95 -0.01
07:20 71 71 87 South 7.8 8.9 - - - - - - 29.96 -
07:50 71 71 88 South 7.8 8.9 5 2.95 exactly 3.0 4 1.64 0.82 - 2.46 5 1.64 0.82 - 2.46 29.97 +0.04
08:20 72 71 85 South 5.8 6.7 - - - - - - 29.98 -
08:50 72 71 85 South 7.8 8.9 4 2.62 exactly 2.6 4 1.64 0.82 - 2.46 4 1.64 0.82 - 2.46 29.97 +0.04
09:20 72 71 85 South 9.7 11.2 - - - - - - 29.97 -
09:50 72 71 85 SSW 7.8 8.9 5 2.62 exactly 2.6 4 1.64 0.82 - 2.46 5 1.64 0.82 - 2.46 29.97 +0.02
10:20 71 71 88 SSW 7.8 8.9 - - - - - - 29.97 -
10:50 71 71 88 South 9.7 11.2 5 2.62 exactly 2.6 4 1.64 0.82 - 2.46 5 1.64 0.82 - 2.46 29.95 -0.02
11:20 71 71 89 South 9.7 11.2 - - - - - - 29.95 -
11:50 72 71 86 South 9.7 11.2 4 2.30 exactly 2.3 4 1.64 0.82 - 2.46 9 1.64 0.82 - 2.46 29.94 -0.03
12:20 72 72 87 South 9.7 11.2 - - - - - - 29.94 -
12:50 72 72 88 South 9.7 11.2 10 2.30 exactly 2.3 5 1.64 0.82 - 2.46 10 1.64 0.82 - 2.46 29.92 -0.05
13:20 72 72 88 South 9.7 11.2 - - - - - - 29.91 -
13:50 72 72 91 South 11.7 13.4 10 2.30 exactly 2.3 4 1.64 0.82 - 2.46 10 1.64 0.82 - 2.46 29.89 -0.06
14:20 73 72 87 South 9.7 11.2 - - - - - - 29.88 -
14:50 73 72 87 SSE 9.7 11.2 10 2.30 exactly 2.3 5 1.64 0.82 - 2.46 10 1.64 0.82 - 2.46 29.86 -0.08
15:20 73 72 89 SSE 9.7 11.2 - - - - - - 29.85 -
15:50 74 72 86 SSE 11.7 13.4 9 2.30 exactly 2.3 3 1.64 0.82 - 2.46 9 1.64 0.82 - 2.46 29.83 -0.09
16:20 73 72 89 South 15.6 17.9 - - - - - - 29.80 -
16:50 74 72 88 SSE 11.7 13.4 9 2.30 exactly 2.3 3 1.64 0.82 - 2.46 9 1.64 0.82 - 2.46 29.80 -0.10
17:20 74 72 87 SSE 11.7 13.4 - - - - - - 29.80 -
17:50 73 72 78 NE 7.8 8.9 10 2.30 exactly 2.3 3 1.64 0.82 - 2.46 10 1.64 0.82 - 2.46 29.82 -0.04
18:20 74 72 76 East 3.9 4.5 - - - - - - 29.83 -
18:50 74 72 79 SE 3.9 4.5 9 2.30 exactly 2.3 3 1.64 0.82 - 2.46 9 1.64 0.82 - 2.46 29.83 -
19:20 74 72 81 SE 3.9 4.5 - - - - - - 29.83 -
19:50 73 72 85 NNE 7.8 8.9 8 2.30 exactly 2.3 4 1.64 0.82 - 2.46 8 1.64 0.82 - 2.46 29.86 +0.06
20:50 71 72 86 NNE 13.6 15.7 10 2.30 exactly 2.3 4 1.64 0.82 - 2.46 10 1.64 0.82 - 2.46 29.86 +0.04
21:20 71 72 85 NE 13.6 15.7 - - - - - - 29.88 -
21:50 71 72 87 NE 11.7 13.4 11 2.95 exactly 3.0 4 1.64 0.82 - 2.46 11 1.64 0.82 - 2.46 29.89 +0.06
22:20 72 72 80 NE 13.6 15.7 - - - - - - 29.90 -
22:50 72 72 82 NE 13.6 15.7 4 3.28 exactly 3.3 4 3.28 2.46 - 4.10 14 1.64 0.82 - 2.46 29.91 +0.06
23:20 72 72 83 ENE 15.6 17.9 - - - - - - 29.90 -
23:50 72 72 79 ENE 13.6 15.7 10 3.28 exactly 3.3 4 3.28 2.46 - 4.10 10 1.64 0.82 - 2.46 29.90 +0.04
00:20 72 72 79 East 13.6 15.7 - - - - - - 29.90 -
00:50 72 72 81 East 13.6 15.7 14 3.28 exactly 3.3 4 3.28 2.46 - 4.10 14 1.64 0.82 - 2.46 29.88 -
01:20 73 72 76 East 13.6 15.7 - - - - - - 29.87 -
01:50 73 72 75 East 13.6 15.7 4 3.28 exactly 3.3 4 3.28 2.46 - 4.10 10 1.64 0.82 - 2.46 29.85 -0.06
02:20 73 72 78 ESE 13.6 15.7 - - - - - - 29.83 -
02:50 73 72 80 ESE 13.6 15.7 5 3.61 exactly 3.6 5 3.28 2.46 - 4.10 9 1.64 0.82 - 2.46 29.82 -0.08
03:20 73 72 85 ESE 13.6 15.7 - - - - - - 29.80 -
03:50 73 72 87 SE 13.6 15.7 5 3.28 exactly 3.3 5 3.28 2.46 - 4.10 9 1.64 0.82 - 2.46 29.79 -0.09

Detailed Wave Spectra

Time Water Depth Wave Height Spectral Peak Period Average Wave Period Sampling Interval Wave Record
20:00 135 ft 2.36 ft 6.7 sec 4.5 sec 0.6 sec 2400 sec
21:00 135 ft 2.46 ft 7.1 sec 3.9 sec 0.6 sec 2400 sec
22:00 135 ft 2.79 ft 7.1 sec 4.0 sec 0.6 sec 2400 sec
23:00 135 ft 2.79 ft 6.7 sec 4.1 sec 0.6 sec 2400 sec
00:00 135 ft 2.62 ft 6.3 sec 4.0 sec 0.6 sec 2400 sec
01:00 135 ft 2.66 ft 6.7 sec 3.9 sec 0.6 sec 2400 sec
02:00 135 ft 2.56 ft 3.3 sec 3.8 sec 0.6 sec 2400 sec
03:00 135 ft 2.92 ft 3.8 sec 3.9 sec 0.6 sec 2400 sec
04:00 135 ft 3.12 ft 3.7 sec 3.9 sec 0.6 sec 2400 sec
05:00 135 ft 3.02 ft 4.2 sec 4.0 sec 0.6 sec 2400 sec
06:00 135 ft 3.08 ft 4.3 sec 4.0 sec 0.6 sec 2400 sec
07:00 135 ft 2.82 ft 4.2 sec 3.9 sec 0.6 sec 2400 sec
08:00 135 ft 2.92 ft 4.5 sec 4.1 sec 0.6 sec 2400 sec
09:00 135 ft 2.69 ft 4.3 sec 4.1 sec 0.6 sec 2400 sec
10:00 135 ft 2.59 ft 4.5 sec 4.1 sec 0.6 sec 2400 sec
11:00 135 ft 2.62 ft 4.5 sec 4.2 sec 0.6 sec 2400 sec
12:00 135 ft 2.43 ft 4.3 sec 4.3 sec 0.6 sec 2400 sec
13:00 135 ft 2.26 ft 10.0 sec 4.3 sec 0.6 sec 2400 sec
14:00 135 ft 2.20 ft 10.0 sec 4.4 sec 0.6 sec 2400 sec
15:00 135 ft 2.20 ft 10.0 sec 4.2 sec 0.6 sec 2400 sec
16:00 135 ft 2.36 ft 9.1 sec 4.4 sec 0.6 sec 2400 sec
17:00 135 ft 2.40 ft 9.1 sec 3.9 sec 0.6 sec 2400 sec
18:00 135 ft 2.20 ft 10.0 sec 3.9 sec 0.6 sec 2400 sec
19:00 135 ft 2.26 ft 9.1 sec 4.6 sec 0.6 sec 2400 sec
20:00 135 ft 2.30 ft 7.7 sec 4.5 sec 0.6 sec 2400 sec
21:00 135 ft 2.43 ft 10.0 sec 4.3 sec 0.6 sec 2400 sec
22:00 135 ft 2.89 ft 10.8 sec 4.4 sec 0.6 sec 2400 sec
23:00 135 ft 3.12 ft 3.8 sec 4.3 sec 0.6 sec 2400 sec
00:00 135 ft 3.38 ft 10.0 sec 4.4 sec 0.6 sec 2400 sec
01:00 135 ft 3.38 ft 13.8 sec 4.4 sec 0.6 sec 2400 sec
02:00 135 ft 3.35 ft 4.2 sec 4.5 sec 0.6 sec 2400 sec
03:00 135 ft 3.51 ft 4.5 sec 4.5 sec 0.6 sec 2400 sec